Flight Track Log - Related Links

Times and Time Zones

All times are in EDT time to prevent confusion due to time zone crossing. See the SWA3924 flight status page for this flight to view local times or setup timezone preferences in your user account.

Time Position Orientation Groundspeed Altitude Reporting Facility
EDT Latitude Longitude Course Direction KTS MPH feet Rate Location/Type
Wed 09:07:20 PM 33.9500 -118.4500 253° West 163 188 1,600  Level Southern TRACON
Wed 09:08:14 PM 33.9333 -118.5167 253° West 233 268 3,600 2,272 Climbing Southern TRACON
Wed 09:09:03 PM 33.9361 -118.5939 273° West 262 302 5,500 2,595 Climbing Los Center
Wed 09:10:05 PM 33.9711 -118.6742 298° West 290 334 8,400 1,805 Climbing Los Center
Wed 09:11:06 PM 34.0528 -118.6775 358° North 292 336 9,200 1,854 Climbing Los Center
Wed 09:12:08 PM 34.1208 -118.6511 18° North 283 326 12,200 2,855 Climbing Los Center
Wed 09:13:10 PM 34.2031 -118.6392 North 313 360 15,100 2,661 Climbing Los Center
Wed 09:14:12 PM 34.2989 -118.6647 348° North 351 404 17,700 2,952 Climbing Los Center
Wed 09:15:14 PM 34.4192 -118.6958 348° North 375 432 21,200 2,952 Climbing Los Center
Wed 09:16:16 PM 34.5275 -118.7244 348° North 395 455 23,800 2,488 Climbing Los Center
Wed 09:17:17 PM 34.6344 -118.7792 337° Northwest 402 463 26,300 2,341 Climbing Los Center
Wed 09:18:19 PM 34.7508 -118.8369 338° Northwest 419 482 28,600 1,935 Climbing Los Center
Wed 09:19:21 PM 34.8556 -118.9131 329° Northwest 444 511 30,300 1,839 Climbing Los Center
Wed 09:20:23 PM 34.9431 -118.9983 321° Northwest 442 509 32,400 2,032 Climbing Los Center
Wed 09:21:25 PM 35.0372 -119.0889 322° Northwest 434 499 34,500 1,742 Climbing Los Center
Wed 09:22:27 PM 35.1481 -119.1972 321° Northwest 428 493 36,000 726 Climbing Los Center
Wed 09:23:29 PM 35.2414 -119.2889 321° Northwest 434 499 36,000  Level Los Center
Wed 09:24:30 PM 35.3353 -119.3803 322° Northwest 434 499 36,000  Level Los Center
Wed 09:25:05 PM 35.3878 -119.4342 320° Northwest 433 498 36,000  Level Oakland Center
Wed 09:26:07 PM 35.4814 -119.5242 322° Northwest 430 495 36,000  Level Oakland Center
Wed 09:27:08 PM 35.5742 -119.6169 321° Northwest 432 497 36,000  Level Oakland Center
Wed 09:28:10 PM 35.6664 -119.7092 321° Northwest 431 496 36,000  Level Oakland Center
Wed 09:29:11 PM 35.7586 -119.8017 321° Northwest 431 496 36,000  Level Oakland Center
Wed 09:30:12 PM 35.8686 -119.9114 321° Northwest 426 490 36,000  Level Oakland Center
Wed 09:31:14 PM 35.9608 -120.0031 321° Northwest 428 493 36,000  Level Oakland Center
Wed 09:32:15 PM 36.0519 -120.1003 319° Northwest 434 499 36,000  Level Oakland Center
Wed 09:33:17 PM 36.1422 -120.1919 321° Northwest 424 488 36,000  Level Oakland Center
Wed 09:34:18 PM 36.2331 -120.2831 321° Northwest 423 487 36,000  Level Oakland Center
Wed 09:35:19 PM 36.3225 -120.3747 320° Northwest 418 481 36,000 -1,024 Level Oakland Center
Wed 09:36:21 PM 36.4114 -120.4661 320° Northwest 418 481 33,900 -2,537 Descending Oakland Center
Wed 09:37:22 PM 36.5178 -120.5697 322° Northwest 410 472 30,800 -2,656 Descending Oakland Center
Wed 09:38:23 PM 36.6078 -120.6678 319° Northwest 430 495 28,500 -2,244 Descending Oakland Center
Wed 09:39:25 PM 36.6961 -120.7600 320° Northwest 418 481 26,200 -2,244 Descending Oakland Center
Wed 09:40:26 PM 36.7794 -120.8481 320° Northwest 398 458 23,900 -2,066 Descending Oakland Center
Wed 09:41:27 PM 36.8517 -120.9294 318° Northwest 383 441 22,000 -2,000 Descending Oakland Center
Wed 09:42:29 PM 36.9303 -121.0208 317° Northwest 385 443 19,800 -2,244 Descending Oakland Center
Wed 09:43:30 PM 37.0222 -121.1258 318° Northwest 374 430 17,400 -2,213 Descending Oakland Center
Wed 09:44:31 PM 37.0939 -121.2100 317° Northwest 356 410 15,300 -2,049 Descending Oakland Center
Wed 09:45:33 PM 37.1658 -121.2936 317° Northwest 351 404 13,200 -2,000 Descending Oakland Center
Wed 09:46:34 PM 37.2350 -121.3747 317° Northwest 343 395 11,200 -1,574 Descending Oakland Center
Wed 09:47:35 PM 37.3031 -121.4528 318° Northwest 333 383 10,000 -976 Descending Oakland Center
Wed 09:48:37 PM 37.3681 -121.5328 316° Northwest 310 357 9,200 -1,024 Descending Oakland Center
Wed 09:49:38 PM 37.4328 -121.6047 319° Northwest 310 357 7,900 -1,180 Descending Oakland Center
Wed 09:50:39 PM 37.4833 -121.7000 304° West 293 337 6,800 -1,041 Descending Northern TRACON
Wed 09:51:39 PM 37.5167 -121.7833 297° West 287 330 5,800 -900 Descending Northern TRACON
Wed 09:52:39 PM 37.5500 -121.8833 293° West 267 307 5,000 -750 Descending Northern TRACON
Wed 09:53:39 PM 37.5667 -121.9500 288° West 233 268 4,300 -800 Descending Northern TRACON
Wed 09:54:39 PM 37.6000 -122.0333 297° West 220 253 3,400 -1,000 Descending Northern TRACON
Wed 09:55:39 PM 37.6167 -122.1000 288° West 216 249 2,300 -1,050 Descending Northern TRACON
Wed 09:56:39 PM 37.6500 -122.1500 310° West 184 212 1,300 -900 Descending Northern TRACON
Wed 09:57:39 PM 37.6833 -122.1833 322° Northwest 141 162 500 -800 Descending Northern TRACON
Wed 10:00:00 PM 37.7167 -122.2167 270° West  Level FlightAware

Login

Don't have an account? Register now (free) for customized features, flight alerts, and more!